Weather reports worldwide

Advertisment
Uccle, Belgium (6447): temperature & dewpoint: 25.10.2020 05:00:00 - 31.10.2020 05:00:00 (CET)Uccle, Belgium (6447): wind speed & gusts: 25.10.2020 05:00:00 - 31.10.2020 05:00:00 (CET)Uccle, Belgium (6447): wind direction: 25.10.2020 05:00:00 - 31.10.2020 05:00:00 (CET)Uccle, Belgium (6447): reduced air pressure: 25.10.2020 05:00:00 - 31.10.2020 05:00:00 (CET)Uccle, Belgium (6447): sunshine duration: 25.10.2020 05:00:00 - 31.10.2020 05:00:00 (CET)Uccle, Belgium (6447): precipitation: 25.10.2020 05:00:00 - 31.10.2020 05:00:00 (CET)
Date & Time tt [°C] td [°C] ff [km/h] ff [kn] fx [km/h] fx [kn] dd ppp [hPa] sd [min] rr [mm]
31.10.2020 05:00:00 - - - - - - - - - -
31.10.2020 04:00:00 12,0 10,9 14 8 25 14 S 1022,5 0 0,0
31.10.2020 03:00:00 12,5 11,3 15 8 29 15 S 1023,1 0 0,0
31.10.2020 02:00:00 12,7 11,7 12 6 29 15 SSW 1023,4 0 0,0
31.10.2020 01:00:00 12,8 11,8 11 6 24 13 SSW 1023,9 0 0,0
31.10.2020 00:00:00 12,7 11,7 12 7 28 15 SSW 1024,0 0 0,2
30.10.2020 23:00:00 13,3 11,3 13 7 33 18 SSW 1024,1 0 0,0
30.10.2020 22:00:00 14,0 10,9 16 9 33 18 SW 1023,5 0 0,0
30.10.2020 21:00:00 14,1 10,8 16 9 31 17 SSW 1023,1 0 0,0
30.10.2020 20:00:00 14,1 11,1 15 8 30 16 SSW 1023,0 0 0,0
30.10.2020 19:00:00 14,2 11,2 14 8 38 21 SSW 1022,9 0 0,0
30.10.2020 18:00:00 14,2 11,2 19 10 37 20 SW 1022,4 0 0,0
30.10.2020 17:00:00 14,5 11,1 21 11 41 22 SSW 1021,8 0 0,0
30.10.2020 16:00:00 15,1 10,9 20 11 40 22 SW 1021,5 0 0,0
30.10.2020 15:00:00 15,2 10,8 15 8 40 22 SW 1021,2 0 0,0
30.10.2020 14:00:00 15,2 10,9 23 12 48 26 SW 1020,8 0 0,0
30.10.2020 13:00:00 15,0 10,9 25 14 45 24 SW 1020,6 0 0,0
30.10.2020 12:00:00 14,8 10,8 24 13 55 30 SW 1020,4 0 0,0
30.10.2020 11:00:00 14,5 10,9 23 12 54 29 SW 1020,4 0 0,0
30.10.2020 10:00:00 14,5 11,2 24 13 47 25 SW 1019,9 5 0,0
30.10.2020 09:00:00 13,6 10,9 24 13 47 25 SW 1019,6 0 0,0
30.10.2020 08:00:00 12,9 11,3 21 11 50 27 SW 1019,1 0 0,0
30.10.2020 07:00:00 13,0 11,2 22 12 46 25 SSW 1018,5 0 0,0
30.10.2020 06:00:00 13,1 11,1 25 14 56 30 SSW 1018,2 0 0,0
30.10.2020 05:00:00 13,9 10,6 31 17 54 29 SW 1017,7 0 0,0
30.10.2020 04:00:00 13,9 10,8 22 12 46 25 SW 1017,4 0 0,0
30.10.2020 03:00:00 13,8 11,0 21 11 45 24 SW 1017,8 0 0,0
30.10.2020 02:00:00 13,6 11,0 20 11 44 24 SW 1017,7 0 0,0
30.10.2020 01:00:00 13,5 10,9 22 12 40 22 SW 1017,6 0 0,0
30.10.2020 00:00:00 13,3 10,9 - - - - - 1017,3 0 -
29.10.2020 23:00:00 13,3 10,9 18 10 44 24 SW 1017,3 0 0,0
29.10.2020 22:00:00 12,8 11,0 23 12 45 24 SW 1017,0 0 0,0
29.10.2020 21:00:00 12,7 10,5 25 14 49 27 SW 1017,1 0 0,0
29.10.2020 20:00:00 12,1 10,3 20 11 49 26 SW 1016,9 0 0,0
29.10.2020 19:00:00 11,3 9,8 22 12 44 24 SSW 1016,9 0 0,4
29.10.2020 18:00:00 11,0 9,5 21 12 42 23 SSW 1016,6 0 0,8
29.10.2020 17:00:00 11,1 9,7 18 10 36 19 SSW 1017,2 0 1,0
29.10.2020 16:00:00 11,7 9,9 18 10 34 19 SSW 1017,4 0 0,5
29.10.2020 15:00:00 12,2 9,9 16 9 33 18 SSW 1017,7 0 0,1
29.10.2020 14:00:00 12,5 9,1 17 9 36 20 SW 1017,9 0 0,0
29.10.2020 13:00:00 12,4 9,1 11 6 37 20 SW 1017,7 0 0,0
29.10.2020 12:00:00 12,3 9,0 17 9 37 20 WSW 1017,7 1 0,0
29.10.2020 11:00:00 11,3 8,9 11 6 34 18 SW 1017,4 6 0,0
29.10.2020 10:00:00 10,3 8,4 14 8 32 17 SW 1016,9 0 0,0
29.10.2020 09:00:00 9,8 8,1 14 8 32 17 SW 1015,8 0 0,0
29.10.2020 08:00:00 9,1 7,5 13 7 26 14 SW 1015,1 0 0,0
29.10.2020 07:00:00 8,2 6,4 12 6 23 13 SW 1014,5 0 0,0
29.10.2020 06:00:00 8,3 6,3 10 5 24 13 SW 1013,5 0 0,0
29.10.2020 05:00:00 9,0 7,0 13 7 30 16 SW 1012,3 0 0,0
29.10.2020 04:00:00 9,4 7,5 11 6 29 15 SW 1011,5 0 0,0
29.10.2020 03:00:00 9,9 7,5 18 10 39 21 WSW 1010,9 0 0,0
29.10.2020 02:00:00 10,0 7,8 17 9 47 25 SW 1010,4 0 0,0
29.10.2020 01:00:00 9,9 8,0 18 10 42 23 SW 1009,4 0 0,0
29.10.2020 00:00:00 9,7 7,9 18 10 35 19 SW 1008,7 0 0,0
28.10.2020 23:00:00 9,2 7,5 19 10 35 19 SW 1008,4 0 0,2
28.10.2020 22:00:00 8,4 7,3 13 7 27 15 SW 1008,0 0 1,7
28.10.2020 21:00:00 7,9 6,5 10 5 34 19 WSW 1008,0 0 0,3
28.10.2020 20:00:00 11,0 7,8 29 15 64 34 WSW 1008,0 0 1,1
28.10.2020 19:00:00 11,8 8,8 25 14 46 25 SSW 1006,6 0 0,8
28.10.2020 18:00:00 11,7 8,5 22 12 51 27 SSW 1007,1 0 0,2
28.10.2020 17:00:00 12,6 6,8 30 16 54 29 SSW 1007,3 0 0,0
28.10.2020 16:00:00 12,8 7,3 26 14 52 28 SSW 1007,5 0 0,1
28.10.2020 15:00:00 12,8 6,7 23 13 56 31 SW 1007,7 1 0,0
28.10.2020 14:00:00 12,9 6,9 23 12 56 30 SSW 1008,1 11 0,0
28.10.2020 13:00:00 12,3 7,4 25 14 49 27 SSW 1008,8 9 0,0
28.10.2020 12:00:00 12,2 7,3 24 13 51 28 SSW 1008,7 18 0,0
28.10.2020 11:00:00 11,4 7,2 22 12 47 26 SSW 1008,6 28 0,0
28.10.2020 10:00:00 11,4 7,8 22 12 48 26 SSW 1008,0 30 0,0
28.10.2020 09:00:00 10,5 8,0 20 11 40 21 SSW 1007,6 25 0,0
28.10.2020 08:00:00 10,3 8,5 18 10 34 19 SW 1006,9 0 0,0
28.10.2020 07:00:00 9,7 7,9 11 6 26 14 SW 1006,3 0 0,2
28.10.2020 06:00:00 11,0 9,0 14 8 34 19 SW 1006,0 0 0,0
28.10.2020 05:00:00 11,0 9,2 19 10 32 17 SSW 1005,4 0 0,0
28.10.2020 04:00:00 11,0 9,1 16 9 32 18 SSW 1004,8 0 0,0
28.10.2020 03:00:00 11,2 9,6 15 8 34 18 SSW 1004,7 0 0,0
28.10.2020 02:00:00 11,6 10,2 11 6 28 15 SW 1004,6 0 0,0
28.10.2020 01:00:00 11,4 10,1 14 8 24 13 SSW 1003,9 0 0,0
28.10.2020 00:00:00 11,5 10,0 11 6 40 21 SW 1003,4 0 0,1
27.10.2020 23:00:00 11,4 10,4 17 9 48 26 SSW 1002,7 0 0,8
27.10.2020 22:00:00 11,0 9,7 27 15 55 30 SSW 1002,2 0 0,9
27.10.2020 21:00:00 10,9 9,2 32 17 58 32 S 1001,1 0 0,3
27.10.2020 20:00:00 10,7 8,7 29 16 69 38 S 1001,0 0 0,1
27.10.2020 19:00:00 10,9 7,9 32 18 56 30 S 1001,3 0 0,0
27.10.2020 18:00:00 10,0 7,9 27 15 52 28 S 1001,9 0 0,1
27.10.2020 17:00:00 10,7 6,8 27 15 53 29 S 1002,6 0 0,0
27.10.2020 16:00:00 11,3 6,4 29 16 52 28 S 1003,1 0 0,0
27.10.2020 15:00:00 11,2 6,2 32 17 58 31 S 1003,9 0 0,0
27.10.2020 14:00:00 11,2 6,0 26 14 46 25 S 1004,7 0 0,0
27.10.2020 13:00:00 10,9 6,5 26 14 50 27 S 1005,3 1 0,0
27.10.2020 12:00:00 10,5 6,6 22 12 47 25 SSW 1005,8 0 0,0
27.10.2020 11:00:00 9,5 6,4 21 11 39 21 S 1005,8 0 0,0
27.10.2020 10:00:00 8,9 6,6 20 11 45 24 S 1006,0 0 0,0
27.10.2020 09:00:00 8,5 6,7 20 11 36 19 S 1005,8 0 0,1
27.10.2020 08:00:00 8,5 6,4 17 9 34 19 S 1005,5 0 0,0
27.10.2020 07:00:00 8,1 6,0 14 8 31 17 SSW 1005,2 0 0,0
27.10.2020 06:00:00 7,7 6,1 16 9 31 17 S 1004,7 0 0,0
27.10.2020 05:00:00 7,7 6,0 13 7 27 15 S 1004,3 0 0,0
27.10.2020 04:00:00 8,1 6,2 14 8 28 15 S 1004,2 0 0,0
27.10.2020 03:00:00 8,5 6,4 12 7 29 15 SSW 1004,2 0 0,0
27.10.2020 02:00:00 8,8 6,4 13 7 29 16 SSW 1004,2 0 0,0
27.10.2020 01:00:00 9,3 7,0 14 8 39 21 SSW 1004,0 0 0,0
27.10.2020 00:00:00 9,9 6,7 18 10 37 20 SW 1003,8 0 0,0
26.10.2020 23:00:00 9,7 6,4 19 10 40 22 SSW 1003,6 0 0,0
26.10.2020 22:00:00 10,0 6,5 16 9 43 23 SSW 1003,5 0 0,0
26.10.2020 21:00:00 10,3 6,5 21 11 40 22 SSW 1002,7 0 0,0
26.10.2020 20:00:00 10,6 6,3 19 11 45 24 SSW 1002,4 0 0,0
26.10.2020 19:00:00 10,9 6,6 18 10 35 19 S 1002,3 0 0,0
26.10.2020 18:00:00 11,0 6,1 16 9 41 22 SSW 1002,1 0 0,0
26.10.2020 17:00:00 11,6 6,1 18 10 47 26 SSW 1001,9 0 0,0
26.10.2020 16:00:00 11,7 5,9 21 11 46 25 SSW 1001,6 2 0,0
26.10.2020 15:00:00 12,3 5,7 17 9 49 27 SSW 1001,1 16 0,0
26.10.2020 14:00:00 12,2 5,5 26 14 49 26 SW 1001,1 31 0,0
26.10.2020 13:00:00 12,7 6,2 18 10 45 25 SSW 1001,1 44 0,0
26.10.2020 12:00:00 11,7 5,6 26 14 47 26 SSW 1001,5 54 0,0
26.10.2020 11:00:00 10,5 5,9 21 11 47 26 SW 1001,8 22 0,0
26.10.2020 10:00:00 9,2 5,7 20 11 42 23 SSW 1002,0 0 0,0
26.10.2020 09:00:00 8,9 5,5 18 10 37 20 SSW 1001,7 0 0,0
26.10.2020 08:00:00 8,7 6,1 14 7 33 18 SSW 1001,9 0 0,0
26.10.2020 07:00:00 8,6 5,8 14 8 36 19 S 1001,0 0 0,0
26.10.2020 06:00:00 8,8 6,5 17 9 34 18 SSW 1000,8 0 0,0
26.10.2020 05:00:00 9,2 7,0 13 7 26 14 SSW 1000,6 0 0,0
26.10.2020 04:00:00 9,3 7,5 16 9 32 18 SSW 1000,8 0 0,0
26.10.2020 03:00:00 9,0 7,6 13 7 28 15 SSW 1000,6 0 0,0
26.10.2020 02:00:00 9,5 7,8 14 7 31 17 SSW 1000,6 0 0,0
26.10.2020 01:00:00 9,6 8,1 18 10 28 15 S 1001,1 0 0,0
26.10.2020 00:00:00 9,5 8,2 16 9 30 16 S 1001,2 0 0,0
25.10.2020 23:00:00 9,5 8,2 12 7 27 14 S 1001,2 0 1,0
25.10.2020 22:00:00 10,7 8,8 10 5 32 17 SW 1001,6 0 0,2
25.10.2020 21:00:00 10,8 8,4 16 9 35 19 S 1001,5 0 0,0
25.10.2020 20:00:00 10,7 8,3 18 10 35 19 S 1001,5 0 0,0
25.10.2020 19:00:00 10,8 8,2 18 10 33 18 S 1001,7 0 0,0
25.10.2020 18:00:00 11,1 8,3 18 10 33 18 S 1001,9 0 0,0
25.10.2020 17:00:00 11,4 8,5 18 10 34 18 S 1001,9 0 0,0
25.10.2020 16:00:00 11,3 8,6 18 10 31 17 S 1001,6 0 0,0
25.10.2020 15:00:00 11,5 8,9 17 9 32 18 S 1001,5 0 0,0
25.10.2020 14:00:00 11,6 9,4 16 9 29 15 S 1001,9 0 0,0
25.10.2020 13:00:00 11,7 10,2 7 4 29 16 SW 1002,6 0 0,1
25.10.2020 12:00:00 11,2 9,5 12 7 29 16 S 1002,2 0 0,7
25.10.2020 11:00:00 11,7 9,0 16 8 37 20 S 1002,0 0 0,0
25.10.2020 10:00:00 12,1 9,8 20 11 40 22 SSW 1002,4 0 0,0
25.10.2020 09:00:00 11,7 10,1 18 10 40 22 S 1002,5 0 0,6
25.10.2020 08:00:00 11,4 10,0 18 10 45 25 SSW 1002,7 0 0,6
25.10.2020 07:00:00 10,5 9,2 18 10 34 19 SSW 1002,4 0 4,3
25.10.2020 06:00:00 11,4 9,2 23 12 56 30 WSW 1002,9 0 3,7
25.10.2020 05:00:00 13,6 9,9 33 18 79 43 S 1001,7 0 0,2

tt = temperature
td = dewpoint
ff = wind speed
fx = gusts
dd = wind direction
ppp = reduced air pressure
sd = sunshine duration
rr = precipitation

Next stations